sensor_id;sensor_type;location;lat;lon;timestamp;P1;durP1;ratioP1;P2;durP2;ratioP2
10365;SDS011;5229;41.820;23.490;2022-08-03T00:00:18;1.40;;;1.30;;
10365;SDS011;5229;41.820;23.490;2022-08-03T00:02:45;1.57;;;1.47;;
10365;SDS011;5229;41.820;23.490;2022-08-03T00:05:12;1.10;;;1.10;;
10365;SDS011;5229;41.820;23.490;2022-08-03T00:07:38;1.70;;;1.60;;
10365;SDS011;5229;41.820;23.490;2022-08-03T00:10:05;1.43;;;1.30;;
10365;SDS011;5229;41.820;23.490;2022-08-03T00:12:33;2.83;;;1.30;;
10365;SDS011;5229;41.820;23.490;2022-08-03T00:15:00;1.30;;;1.20;;
10365;SDS011;5229;41.820;23.490;2022-08-03T00:17:29;1.57;;;1.40;;
10365;SDS011;5229;41.820;23.490;2022-08-03T00:19:55;2.33;;;1.30;;
10365;SDS011;5229;41.820;23.490;2022-08-03T00:22:22;4.93;;;1.70;;
10365;SDS011;5229;41.820;23.490;2022-08-03T00:24:49;2.03;;;1.30;;
10365;SDS011;5229;41.820;23.490;2022-08-03T00:27:16;1.27;;;1.20;;
10365;SDS011;5229;41.820;23.490;2022-08-03T00:29:42;1.30;;;1.20;;
10365;SDS011;5229;41.820;23.490;2022-08-03T00:32:09;1.60;;;1.40;;
10365;SDS011;5229;41.820;23.490;2022-08-03T00:34:37;1.60;;;1.50;;
10365;SDS011;5229;41.820;23.490;2022-08-03T00:37:04;1.03;;;1.03;;
10365;SDS011;5229;41.820;23.490;2022-08-03T00:39:31;1.43;;;1.33;;
10365;SDS011;5229;41.820;23.490;2022-08-03T00:42:00;1.30;;;1.20;;
10365;SDS011;5229;41.820;23.490;2022-08-03T00:44:27;1.50;;;1.40;;
10365;SDS011;5229;41.820;23.490;2022-08-03T00:46:54;1.40;;;1.30;;
10365;SDS011;5229;41.820;23.490;2022-08-03T00:49:21;1.10;;;1.10;;
10365;SDS011;5229;41.820;23.490;2022-08-03T00:51:50;1.37;;;1.27;;
10365;SDS011;5229;41.820;23.490;2022-08-03T00:54:16;1.40;;;1.30;;
10365;SDS011;5229;41.820;23.490;2022-08-03T00:56:45;1.40;;;1.30;;
10365;SDS011;5229;41.820;23.490;2022-08-03T00:59:12;1.47;;;1.37;;
10365;SDS011;5229;41.820;23.490;2022-08-03T01:01:40;1.50;;;1.40;;
10365;SDS011;5229;41.820;23.490;2022-08-03T01:04:06;2.83;;;1.50;;
10365;SDS011;5229;41.820;23.490;2022-08-03T01:06:35;1.40;;;1.30;;
10365;SDS011;5229;41.820;23.490;2022-08-03T01:09:12;1.40;;;1.30;;
10365;SDS011;5229;41.820;23.490;2022-08-03T01:11:46;1.60;;;1.50;;
10365;SDS011;5229;41.820;23.490;2022-08-03T01:14:17;1.33;;;1.20;;
10365;SDS011;5229;41.820;23.490;2022-08-03T01:16:51;1.50;;;1.40;;
10365;SDS011;5229;41.820;23.490;2022-08-03T01:19:30;1.20;;;1.10;;
10365;SDS011;5229;41.820;23.490;2022-08-03T01:22:10;1.30;;;1.20;;
10365;SDS011;5229;41.820;23.490;2022-08-03T01:24:53;1.20;;;1.10;;
10365;SDS011;5229;41.820;23.490;2022-08-03T01:27:28;1.70;;;1.37;;
10365;SDS011;5229;41.820;23.490;2022-08-03T01:30:06;1.57;;;1.47;;
10365;SDS011;5229;41.820;23.490;2022-08-03T01:32:38;1.40;;;1.30;;
10365;SDS011;5229;41.820;23.490;2022-08-03T01:35:11;1.67;;;1.57;;
10365;SDS011;5229;41.820;23.490;2022-08-03T01:37:41;1.40;;;1.30;;
10365;SDS011;5229;41.820;23.490;2022-08-03T01:40:11;1.33;;;1.23;;
10365;SDS011;5229;41.820;23.490;2022-08-03T01:42:40;1.50;;;1.40;;
10365;SDS011;5229;41.820;23.490;2022-08-03T01:45:10;1.90;;;1.80;;
10365;SDS011;5229;41.820;23.490;2022-08-03T01:47:39;1.50;;;1.40;;
10365;SDS011;5229;41.820;23.490;2022-08-03T01:50:07;1.50;;;1.40;;
10365;SDS011;5229;41.820;23.490;2022-08-03T01:52:38;1.70;;;1.57;;
10365;SDS011;5229;41.820;23.490;2022-08-03T01:55:08;1.60;;;1.30;;
10365;SDS011;5229;41.820;23.490;2022-08-03T01:57:37;1.50;;;1.40;;
10365;SDS011;5229;41.820;23.490;2022-08-03T02:00:06;1.57;;;1.47;;
10365;SDS011;5229;41.820;23.490;2022-08-03T02:02:36;1.70;;;1.60;;
10365;SDS011;5229;41.820;23.490;2022-08-03T02:05:06;1.70;;;1.60;;
10365;SDS011;5229;41.820;23.490;2022-08-03T02:07:35;1.30;;;1.20;;
10365;SDS011;5229;41.820;23.490;2022-08-03T02:10:03;1.47;;;1.37;;
10365;SDS011;5229;41.820;23.490;2022-08-03T02:12:32;1.70;;;1.60;;
10365;SDS011;5229;41.820;23.490;2022-08-03T02:15:00;1.47;;;1.37;;
10365;SDS011;5229;41.820;23.490;2022-08-03T02:17:27;2.17;;;1.40;;
10365;SDS011;5229;41.820;23.490;2022-08-03T02:19:57;1.77;;;1.57;;
10365;SDS011;5229;41.820;23.490;2022-08-03T02:22:26;2.90;;;1.43;;
10365;SDS011;5229;41.820;23.490;2022-08-03T02:24:55;2.17;;;1.60;;
10365;SDS011;5229;41.820;23.490;2022-08-03T02:27:22;1.67;;;1.57;;
10365;SDS011;5229;41.820;23.490;2022-08-03T02:29:52;1.50;;;1.40;;
10365;SDS011;5229;41.820;23.490;2022-08-03T02:32:26;1.63;;;1.53;;
10365;SDS011;5229;41.820;23.490;2022-08-03T02:34:58;1.53;;;1.43;;
10365;SDS011;5229;41.820;23.490;2022-08-03T02:37:28;1.40;;;1.30;;
10365;SDS011;5229;41.820;23.490;2022-08-03T02:39:58;1.47;;;1.37;;
10365;SDS011;5229;41.820;23.490;2022-08-03T02:42:27;1.60;;;1.50;;
10365;SDS011;5229;41.820;23.490;2022-08-03T02:44:57;1.50;;;1.40;;
10365;SDS011;5229;41.820;23.490;2022-08-03T02:47:27;1.60;;;1.50;;
10365;SDS011;5229;41.820;23.490;2022-08-03T02:49:55;1.70;;;1.60;;
10365;SDS011;5229;41.820;23.490;2022-08-03T02:52:27;2.67;;;1.40;;
10365;SDS011;5229;41.820;23.490;2022-08-03T02:54:56;1.10;;;1.00;;
10365;SDS011;5229;41.820;23.490;2022-08-03T02:57:26;1.70;;;1.40;;
10365;SDS011;5229;41.820;23.490;2022-08-03T02:59:55;1.27;;;1.20;;
10365;SDS011;5229;41.820;23.490;2022-08-03T03:02:23;1.13;;;1.13;;
10365;SDS011;5229;41.820;23.490;2022-08-03T03:04:51;1.67;;;1.57;;
10365;SDS011;5229;41.820;23.490;2022-08-03T03:07:21;1.33;;;1.23;;
10365;SDS011;5229;41.820;23.490;2022-08-03T03:09:48;1.83;;;1.40;;
10365;SDS011;5229;41.820;23.490;2022-08-03T03:12:15;1.30;;;1.20;;
10365;SDS011;5229;41.820;23.490;2022-08-03T03:14:43;1.57;;;1.47;;
10365;SDS011;5229;41.820;23.490;2022-08-03T03:17:10;1.53;;;1.43;;
10365;SDS011;5229;41.820;23.490;2022-08-03T03:19:39;1.43;;;1.33;;
10365;SDS011;5229;41.820;23.490;2022-08-03T03:22:09;1.50;;;1.40;;
10365;SDS011;5229;41.820;23.490;2022-08-03T03:24:40;1.60;;;1.50;;
10365;SDS011;5229;41.820;23.490;2022-08-03T03:27:08;1.70;;;1.47;;
10365;SDS011;5229;41.820;23.490;2022-08-03T03:29:35;2.50;;;1.77;;
10365;SDS011;5229;41.820;23.490;2022-08-03T03:32:03;1.83;;;1.50;;
10365;SDS011;5229;41.820;23.490;2022-08-03T03:34:30;1.47;;;1.33;;
10365;SDS011;5229;41.820;23.490;2022-08-03T03:36:58;1.60;;;1.50;;
10365;SDS011;5229;41.820;23.490;2022-08-03T03:39:26;1.53;;;1.43;;
10365;SDS011;5229;41.820;23.490;2022-08-03T03:41:55;1.50;;;1.40;;
10365;SDS011;5229;41.820;23.490;2022-08-03T03:44:25;1.70;;;1.60;;
10365;SDS011;5229;41.820;23.490;2022-08-03T03:46:52;1.60;;;1.50;;
10365;SDS011;5229;41.820;23.490;2022-08-03T03:49:19;1.70;;;1.60;;
10365;SDS011;5229;41.820;23.490;2022-08-03T03:51:46;1.50;;;1.40;;
10365;SDS011;5229;41.820;23.490;2022-08-03T03:54:14;1.50;;;1.40;;
10365;SDS011;5229;41.820;23.490;2022-08-03T03:56:41;2.60;;;1.63;;
10365;SDS011;5229;41.820;23.490;2022-08-03T03:59:09;1.40;;;1.20;;
10365;SDS011;5229;41.820;23.490;2022-08-03T04:01:36;1.40;;;1.30;;
10365;SDS011;5229;41.820;23.490;2022-08-03T04:04:04;1.57;;;1.40;;
10365;SDS011;5229;41.820;23.490;2022-08-03T04:06:45;1.30;;;1.20;;
10365;SDS011;5229;41.820;23.490;2022-08-03T04:09:30;1.50;;;1.40;;
10365;SDS011;5229;41.820;23.490;2022-08-03T04:12:15;1.60;;;1.50;;
10365;SDS011;5229;41.820;23.490;2022-08-03T04:14:46;1.63;;;1.53;;
10365;SDS011;5229;41.820;23.490;2022-08-03T04:17:14;1.80;;;1.60;;
10365;SDS011;5229;41.820;23.490;2022-08-03T04:19:44;2.00;;;1.47;;
10365;SDS011;5229;41.820;23.490;2022-08-03T04:22:16;1.60;;;1.50;;
10365;SDS011;5229;41.820;23.490;2022-08-03T04:24:45;1.70;;;1.60;;
10365;SDS011;5229;41.820;23.490;2022-08-03T04:27:16;2.10;;;1.40;;
10365;SDS011;5229;41.820;23.490;2022-08-03T04:29:48;1.80;;;1.70;;
10365;SDS011;5229;41.820;23.490;2022-08-03T04:32:18;1.70;;;1.60;;
10365;SDS011;5229;41.820;23.490;2022-08-03T04:34:47;3.37;;;2.10;;
10365;SDS011;5229;41.820;23.490;2022-08-03T04:37:17;4.13;;;3.40;;
10365;SDS011;5229;41.820;23.490;2022-08-03T04:39:50;4.27;;;2.77;;
10365;SDS011;5229;41.820;23.490;2022-08-03T04:42:19;3.53;;;2.67;;
10365;SDS011;5229;41.820;23.490;2022-08-03T04:44:50;3.53;;;2.77;;
10365;SDS011;5229;41.820;23.490;2022-08-03T04:47:19;2.87;;;2.67;;
10365;SDS011;5229;41.820;23.490;2022-08-03T04:49:46;4.57;;;3.70;;
10365;SDS011;5229;41.820;23.490;2022-08-03T04:52:14;5.33;;;4.03;;
10365;SDS011;5229;41.820;23.490;2022-08-03T04:54:41;4.00;;;3.60;;
10365;SDS011;5229;41.820;23.490;2022-08-03T04:57:09;5.43;;;3.60;;
10365;SDS011;5229;41.820;23.490;2022-08-03T04:59:37;5.07;;;3.87;;
10365;SDS011;5229;41.820;23.490;2022-08-03T05:02:05;5.93;;;4.03;;
10365;SDS011;5229;41.820;23.490;2022-08-03T05:04:32;6.83;;;3.67;;
10365;SDS011;5229;41.820;23.490;2022-08-03T05:06:59;4.17;;;3.30;;
10365;SDS011;5229;41.820;23.490;2022-08-03T05:09:26;3.20;;;2.90;;
10365;SDS011;5229;41.820;23.490;2022-08-03T05:11:53;3.53;;;2.97;;
10365;SDS011;5229;41.820;23.490;2022-08-03T05:14:20;2.70;;;2.50;;
10365;SDS011;5229;41.820;23.490;2022-08-03T05:16:46;4.53;;;2.47;;
10365;SDS011;5229;41.820;23.490;2022-08-03T05:19:15;2.30;;;1.40;;
10365;SDS011;5229;41.820;23.490;2022-08-03T05:21:41;1.90;;;1.80;;
10365;SDS011;5229;41.820;23.490;2022-08-03T05:24:08;2.20;;;2.07;;
10365;SDS011;5229;41.820;23.490;2022-08-03T05:26:35;4.83;;;3.07;;
10365;SDS011;5229;41.820;23.490;2022-08-03T05:29:02;2.53;;;2.33;;
10365;SDS011;5229;41.820;23.490;2022-08-03T05:31:29;4.93;;;2.50;;
10365;SDS011;5229;41.820;23.490;2022-08-03T05:33:56;2.42;;;2.20;;
10365;SDS011;5229;41.820;23.490;2022-08-03T05:36:24;3.92;;;3.13;;
10365;SDS011;5229;41.820;23.490;2022-08-03T05:38:51;3.00;;;2.80;;
10365;SDS011;5229;41.820;23.490;2022-08-03T05:41:18;3.78;;;3.47;;
10365;SDS011;5229;41.820;23.490;2022-08-03T05:43:45;3.55;;;3.22;;
10365;SDS011;5229;41.820;23.490;2022-08-03T05:46:12;4.57;;;3.47;;
10365;SDS011;5229;41.820;23.490;2022-08-03T05:48:39;3.30;;;3.00;;
10365;SDS011;5229;41.820;23.490;2022-08-03T05:51:06;3.33;;;3.03;;
10365;SDS011;5229;41.820;23.490;2022-08-03T05:53:36;3.28;;;2.97;;
10365;SDS011;5229;41.820;23.490;2022-08-03T05:56:03;4.03;;;3.72;;
10365;SDS011;5229;41.820;23.490;2022-08-03T05:58:30;3.53;;;3.22;;
10365;SDS011;5229;41.820;23.490;2022-08-03T06:00:57;3.30;;;3.03;;
10365;SDS011;5229;41.820;23.490;2022-08-03T06:03:24;4.28;;;3.90;;
10365;SDS011;5229;41.820;23.490;2022-08-03T06:05:52;3.33;;;3.03;;
10365;SDS011;5229;41.820;23.490;2022-08-03T06:08:20;3.80;;;3.50;;
10365;SDS011;5229;41.820;23.490;2022-08-03T06:10:48;4.35;;;3.50;;
10365;SDS011;5229;41.820;23.490;2022-08-03T06:13:15;3.55;;;3.25;;
10365;SDS011;5229;41.820;23.490;2022-08-03T06:15:42;4.20;;;3.80;;
10365;SDS011;5229;41.820;23.490;2022-08-03T06:18:09;5.03;;;4.15;;
10365;SDS011;5229;41.820;23.490;2022-08-03T06:20:36;3.70;;;3.40;;
10365;SDS011;5229;41.820;23.490;2022-08-03T06:23:02;3.00;;;2.75;;
10365;SDS011;5229;41.820;23.490;2022-08-03T06:25:29;3.00;;;2.80;;
10365;SDS011;5229;41.820;23.490;2022-08-03T06:27:57;2.60;;;2.40;;
10365;SDS011;5229;41.820;23.490;2022-08-03T06:30:24;3.35;;;2.50;;
10365;SDS011;5229;41.820;23.490;2022-08-03T06:32:51;2.75;;;2.50;;
10365;SDS011;5229;41.820;23.490;2022-08-03T06:35:19;2.83;;;2.30;;
10365;SDS011;5229;41.820;23.490;2022-08-03T06:37:47;2.65;;;2.13;;
10365;SDS011;5229;41.820;23.490;2022-08-03T06:40:16;2.17;;;2.08;;
10365;SDS011;5229;41.820;23.490;2022-08-03T06:42:44;2.30;;;2.10;;
10365;SDS011;5229;41.820;23.490;2022-08-03T06:45:12;2.00;;;1.90;;
10365;SDS011;5229;41.820;23.490;2022-08-03T06:47:39;2.00;;;1.90;;
10365;SDS011;5229;41.820;23.490;2022-08-03T06:50:06;3.90;;;2.17;;
10365;SDS011;5229;41.820;23.490;2022-08-03T06:52:34;2.15;;;1.98;;
10365;SDS011;5229;41.820;23.490;2022-08-03T06:55:01;1.98;;;1.88;;
10365;SDS011;5229;41.820;23.490;2022-08-03T06:57:29;2.20;;;2.00;;
10365;SDS011;5229;41.820;23.490;2022-08-03T06:59:56;2.05;;;1.92;;
10365;SDS011;5229;41.820;23.490;2022-08-03T07:02:27;1.80;;;1.70;;
10365;SDS011;5229;41.820;23.490;2022-08-03T07:04:54;1.95;;;1.85;;
10365;SDS011;5229;41.820;23.490;2022-08-03T07:07:21;1.35;;;1.25;;
10365;SDS011;5229;41.820;23.490;2022-08-03T07:09:48;1.52;;;1.42;;
10365;SDS011;5229;41.820;23.490;2022-08-03T07:12:15;2.85;;;2.30;;
10365;SDS011;5229;41.820;23.490;2022-08-03T07:14:42;1.73;;;1.63;;
10365;SDS011;5229;41.820;23.490;2022-08-03T07:17:09;1.50;;;1.40;;
10365;SDS011;5229;41.820;23.490;2022-08-03T07:19:37;1.60;;;1.50;;
10365;SDS011;5229;41.820;23.490;2022-08-03T07:22:04;3.22;;;1.75;;
10365;SDS011;5229;41.820;23.490;2022-08-03T07:24:32;1.50;;;1.40;;
10365;SDS011;5229;41.820;23.490;2022-08-03T07:26:59;1.60;;;1.50;;
10365;SDS011;5229;41.820;23.490;2022-08-03T07:29:26;1.63;;;1.50;;
10365;SDS011;5229;41.820;23.490;2022-08-03T07:31:53;1.52;;;1.42;;
10365;SDS011;5229;41.820;23.490;2022-08-03T07:34:20;2.38;;;1.30;;
10365;SDS011;5229;41.820;23.490;2022-08-03T07:36:48;1.80;;;1.45;;
10365;SDS011;5229;41.820;23.490;2022-08-03T07:39:15;1.67;;;1.58;;
10365;SDS011;5229;41.820;23.490;2022-08-03T07:41:42;1.35;;;1.30;;
10365;SDS011;5229;41.820;23.490;2022-08-03T07:44:09;2.38;;;1.40;;
10365;SDS011;5229;41.820;23.490;2022-08-03T07:46:36;5.65;;;1.40;;
10365;SDS011;5229;41.820;23.490;2022-08-03T07:49:03;1.70;;;1.60;;
10365;SDS011;5229;41.820;23.490;2022-08-03T07:51:30;1.88;;;1.33;;
10365;SDS011;5229;41.820;23.490;2022-08-03T07:53:58;1.50;;;1.35;;
10365;SDS011;5229;41.820;23.490;2022-08-03T07:56:25;1.30;;;1.20;;
10365;SDS011;5229;41.820;23.490;2022-08-03T07:58:52;1.38;;;1.23;;
10365;SDS011;5229;41.820;23.490;2022-08-03T08:01:20;1.50;;;1.40;;
10365;SDS011;5229;41.820;23.490;2022-08-03T08:03:47;1.23;;;1.13;;
10365;SDS011;5229;41.820;23.490;2022-08-03T08:06:15;2.22;;;1.38;;
10365;SDS011;5229;41.820;23.490;2022-08-03T08:08:42;1.58;;;1.48;;
10365;SDS011;5229;41.820;23.490;2022-08-03T08:11:10;1.27;;;1.17;;
10365;SDS011;5229;41.820;23.490;2022-08-03T08:13:37;1.30;;;1.20;;
10365;SDS011;5229;41.820;23.490;2022-08-03T08:16:04;1.13;;;1.13;;
10365;SDS011;5229;41.820;23.490;2022-08-03T08:18:31;1.88;;;1.70;;
10365;SDS011;5229;41.820;23.490;2022-08-03T08:20:58;1.60;;;1.50;;
10365;SDS011;5229;41.820;23.490;2022-08-03T08:23:27;1.40;;;1.30;;
10365;SDS011;5229;41.820;23.490;2022-08-03T08:25:54;1.17;;;1.02;;
10365;SDS011;5229;41.820;23.490;2022-08-03T08:28:22;1.52;;;1.15;;
10365;SDS011;5229;41.820;23.490;2022-08-03T08:30:49;1.42;;;1.33;;
10365;SDS011;5229;41.820;23.490;2022-08-03T08:33:16;1.40;;;1.08;;
10365;SDS011;5229;41.820;23.490;2022-08-03T08:35:43;1.30;;;1.20;;
10365;SDS011;5229;41.820;23.490;2022-08-03T08:38:10;1.33;;;1.23;;
10365;SDS011;5229;41.820;23.490;2022-08-03T08:40:37;1.08;;;1.08;;
10365;SDS011;5229;41.820;23.490;2022-08-03T08:43:04;1.27;;;1.20;;
10365;SDS011;5229;41.820;23.490;2022-08-03T08:45:34;1.10;;;1.10;;
10365;SDS011;5229;41.820;23.490;2022-08-03T08:48:01;1.00;;;0.98;;
10365;SDS011;5229;41.820;23.490;2022-08-03T08:50:29;1.58;;;1.48;;
10365;SDS011;5229;41.820;23.490;2022-08-03T08:52:55;2.63;;;1.10;;
10365;SDS011;5229;41.820;23.490;2022-08-03T08:55:27;0.98;;;0.98;;
10365;SDS011;5229;41.820;23.490;2022-08-03T08:57:56;3.70;;;1.17;;
10365;SDS011;5229;41.820;23.490;2022-08-03T09:00:26;1.10;;;1.08;;
10365;SDS011;5229;41.820;23.490;2022-08-03T09:02:56;1.00;;;1.00;;
10365;SDS011;5229;41.820;23.490;2022-08-03T09:05:23;2.15;;;0.90;;
10365;SDS011;5229;41.820;23.490;2022-08-03T09:07:50;1.00;;;1.00;;
10365;SDS011;5229;41.820;23.490;2022-08-03T09:10:17;0.98;;;0.98;;
10365;SDS011;5229;41.820;23.490;2022-08-03T09:12:46;0.63;;;0.63;;
10365;SDS011;5229;41.820;23.490;2022-08-03T09:15:15;0.60;;;0.60;;
10365;SDS011;5229;41.820;23.490;2022-08-03T09:17:43;1.10;;;0.63;;
10365;SDS011;5229;41.820;23.490;2022-08-03T09:20:13;0.90;;;0.90;;
10365;SDS011;5229;41.820;23.490;2022-08-03T09:22:50;0.70;;;0.70;;
10365;SDS011;5229;41.820;23.490;2022-08-03T09:25:18;0.70;;;0.70;;
10365;SDS011;5229;41.820;23.490;2022-08-03T09:27:51;0.60;;;0.60;;
10365;SDS011;5229;41.820;23.490;2022-08-03T09:30:18;1.42;;;0.90;;
10365;SDS011;5229;41.820;23.490;2022-08-03T09:32:45;0.70;;;0.70;;
10365;SDS011;5229;41.820;23.490;2022-08-03T09:35:14;1.10;;;0.68;;
10365;SDS011;5229;41.820;23.490;2022-08-03T09:37:40;1.38;;;0.57;;
10365;SDS011;5229;41.820;23.490;2022-08-03T09:40:07;1.15;;;0.80;;
10365;SDS011;5229;41.820;23.490;2022-08-03T09:42:35;0.68;;;0.68;;
10365;SDS011;5229;41.820;23.490;2022-08-03T09:45:03;0.40;;;0.40;;
10365;SDS011;5229;41.820;23.490;2022-08-03T09:47:31;2.13;;;0.88;;
10365;SDS011;5229;41.820;23.490;2022-08-03T09:50:01;0.70;;;0.70;;
10365;SDS011;5229;41.820;23.490;2022-08-03T09:52:32;0.60;;;0.60;;
10365;SDS011;5229;41.820;23.490;2022-08-03T09:54:59;0.70;;;0.70;;
10365;SDS011;5229;41.820;23.490;2022-08-03T09:57:27;0.80;;;0.80;;
10365;SDS011;5229;41.820;23.490;2022-08-03T10:00:04;0.50;;;0.50;;
10365;SDS011;5229;41.820;23.490;2022-08-03T10:02:36;0.70;;;0.70;;
10365;SDS011;5229;41.820;23.490;2022-08-03T10:05:03;0.75;;;0.75;;
10365;SDS011;5229;41.820;23.490;2022-08-03T10:07:40;0.70;;;0.70;;
10365;SDS011;5229;41.820;23.490;2022-08-03T10:10:08;1.17;;;0.80;;
10365;SDS011;5229;41.820;23.490;2022-08-03T10:12:35;0.60;;;0.60;;
10365;SDS011;5229;41.820;23.490;2022-08-03T10:15:03;0.70;;;0.70;;
10365;SDS011;5229;41.820;23.490;2022-08-03T10:17:31;0.90;;;0.90;;
10365;SDS011;5229;41.820;23.490;2022-08-03T10:19:57;0.98;;;0.80;;
10365;SDS011;5229;41.820;23.490;2022-08-03T10:22:26;0.82;;;0.82;;
10365;SDS011;5229;41.820;23.490;2022-08-03T10:24:57;0.60;;;0.60;;
10365;SDS011;5229;41.820;23.490;2022-08-03T10:27:26;1.00;;;0.88;;
10365;SDS011;5229;41.820;23.490;2022-08-03T10:29:59;3.30;;;3.08;;
10365;SDS011;5229;41.820;23.490;2022-08-03T10:32:29;2.42;;;1.20;;
10365;SDS011;5229;41.820;23.490;2022-08-03T10:35:02;2.10;;;1.00;;
10365;SDS011;5229;41.820;23.490;2022-08-03T10:37:31;1.25;;;1.25;;
10365;SDS011;5229;41.820;23.490;2022-08-03T10:40:04;0.80;;;0.80;;
10365;SDS011;5229;41.820;23.490;2022-08-03T10:42:33;1.00;;;1.00;;
10365;SDS011;5229;41.820;23.490;2022-08-03T10:45:03;0.90;;;0.90;;
10365;SDS011;5229;41.820;23.490;2022-08-03T10:47:33;2.63;;;1.05;;
10365;SDS011;5229;41.820;23.490;2022-08-03T10:50:01;0.70;;;0.70;;
10365;SDS011;5229;41.820;23.490;2022-08-03T10:52:29;0.95;;;0.95;;
10365;SDS011;5229;41.820;23.490;2022-08-03T10:54:55;1.00;;;1.00;;
10365;SDS011;5229;41.820;23.490;2022-08-03T10:57:45;1.10;;;1.10;;
10365;SDS011;5229;41.820;23.490;2022-08-03T11:00:17;1.23;;;1.13;;
10365;SDS011;5229;41.820;23.490;2022-08-03T11:03:05;0.90;;;0.90;;
10365;SDS011;5229;41.820;23.490;2022-08-03T11:05:35;0.82;;;0.82;;
10365;SDS011;5229;41.820;23.490;2022-08-03T11:08:22;1.30;;;1.20;;
10365;SDS011;5229;41.820;23.490;2022-08-03T11:10:55;1.20;;;1.10;;
10365;SDS011;5229;41.820;23.490;2022-08-03T11:13:26;1.15;;;1.10;;
10365;SDS011;5229;41.820;23.490;2022-08-03T11:15:57;1.33;;;1.23;;
10365;SDS011;5229;41.820;23.490;2022-08-03T11:18:25;1.17;;;1.17;;
10365;SDS011;5229;41.820;23.490;2022-08-03T11:20:53;1.15;;;1.15;;
10365;SDS011;5229;41.820;23.490;2022-08-03T11:26:07;1.13;;;1.13;;
10365;SDS011;5229;41.820;23.490;2022-08-03T11:28:39;1.63;;;1.25;;
10365;SDS011;5229;41.820;23.490;2022-08-03T11:34:14;2.22;;;1.10;;
10365;SDS011;5229;41.820;23.490;2022-08-03T11:39:46;1.48;;;1.30;;
10365;SDS011;5229;41.820;23.490;2022-08-03T11:45:13;1.65;;;1.55;;
10365;SDS011;5229;41.820;23.490;2022-08-03T11:47:42;1.13;;;1.13;;
10365;SDS011;5229;41.820;23.490;2022-08-03T11:50:09;1.33;;;1.30;;
10365;SDS011;5229;41.820;23.490;2022-08-03T11:52:37;1.77;;;1.13;;
10365;SDS011;5229;41.820;23.490;2022-08-03T11:55:12;1.58;;;1.33;;
10365;SDS011;5229;41.820;23.490;2022-08-03T11:57:41;1.20;;;1.10;;
10365;SDS011;5229;41.820;23.490;2022-08-03T12:00:24;1.92;;;1.40;;
10365;SDS011;5229;41.820;23.490;2022-08-03T12:02:57;1.13;;;1.13;;
10365;SDS011;5229;41.820;23.490;2022-08-03T12:05:36;1.42;;;1.30;;
10365;SDS011;5229;41.820;23.490;2022-08-03T12:08:05;1.27;;;1.17;;
10365;SDS011;5229;41.820;23.490;2022-08-03T12:10:33;1.60;;;1.30;;
10365;SDS011;5229;41.820;23.490;2022-08-03T12:13:01;2.50;;;2.13;;
10365;SDS011;5229;41.820;23.490;2022-08-03T12:15:32;1.17;;;1.17;;
10365;SDS011;5229;41.820;23.490;2022-08-03T12:18:00;1.20;;;1.10;;
10365;SDS011;5229;41.820;23.490;2022-08-03T12:20:29;1.10;;;1.10;;
10365;SDS011;5229;41.820;23.490;2022-08-03T12:23:01;3.45;;;1.40;;
10365;SDS011;5229;41.820;23.490;2022-08-03T12:25:29;1.55;;;1.05;;
10365;SDS011;5229;41.820;23.490;2022-08-03T12:28:05;1.30;;;1.20;;
10365;SDS011;5229;41.820;23.490;2022-08-03T12:30:35;1.42;;;1.33;;
10365;SDS011;5229;41.820;23.490;2022-08-03T12:33:15;2.15;;;1.45;;
10365;SDS011;5229;41.820;23.490;2022-08-03T12:35:45;1.25;;;1.15;;
10365;SDS011;5229;41.820;23.490;2022-08-03T12:38:17;2.83;;;1.40;;
10365;SDS011;5229;41.820;23.490;2022-08-03T12:40:53;1.40;;;1.30;;
10365;SDS011;5229;41.820;23.490;2022-08-03T12:43:24;1.38;;;1.27;;
10365;SDS011;5229;41.820;23.490;2022-08-03T12:45:59;1.40;;;1.30;;
10365;SDS011;5229;41.820;23.490;2022-08-03T12:48:32;1.30;;;1.20;;
10365;SDS011;5229;41.820;23.490;2022-08-03T12:51:06;1.38;;;1.23;;
10365;SDS011;5229;41.820;23.490;2022-08-03T12:53:34;1.00;;;1.00;;
10365;SDS011;5229;41.820;23.490;2022-08-03T12:56:01;0.98;;;0.98;;
10365;SDS011;5229;41.820;23.490;2022-08-03T12:58:29;1.10;;;0.93;;
10365;SDS011;5229;41.820;23.490;2022-08-03T13:00:59;1.02;;;1.02;;
10365;SDS011;5229;41.820;23.490;2022-08-03T13:03:26;2.30;;;1.17;;
10365;SDS011;5229;41.820;23.490;2022-08-03T13:05:53;0.93;;;0.90;;
10365;SDS011;5229;41.820;23.490;2022-08-03T13:08:22;1.25;;;1.15;;
10365;SDS011;5229;41.820;23.490;2022-08-03T13:10:49;1.30;;;1.20;;
10365;SDS011;5229;41.820;23.490;2022-08-03T13:13:16;1.40;;;1.15;;
10365;SDS011;5229;41.820;23.490;2022-08-03T13:15:44;1.13;;;1.02;;
10365;SDS011;5229;41.820;23.490;2022-08-03T13:18:12;1.50;;;1.40;;
10365;SDS011;5229;41.820;23.490;2022-08-03T13:20:39;1.67;;;1.42;;
10365;SDS011;5229;41.820;23.490;2022-08-03T13:23:07;1.58;;;1.27;;
10365;SDS011;5229;41.820;23.490;2022-08-03T13:25:34;5.18;;;1.67;;
10365;SDS011;5229;41.820;23.490;2022-08-03T13:28:01;1.20;;;1.20;;
10365;SDS011;5229;41.820;23.490;2022-08-03T13:30:30;1.90;;;1.65;;
10365;SDS011;5229;41.820;23.490;2022-08-03T13:32:57;1.20;;;1.20;;
10365;SDS011;5229;41.820;23.490;2022-08-03T13:35:26;2.15;;;1.42;;
10365;SDS011;5229;41.820;23.490;2022-08-03T13:37:52;1.58;;;1.48;;
10365;SDS011;5229;41.820;23.490;2022-08-03T13:40:19;1.73;;;1.63;;
10365;SDS011;5229;41.820;23.490;2022-08-03T13:42:46;1.85;;;1.75;;
10365;SDS011;5229;41.820;23.490;2022-08-03T13:45:13;2.13;;;2.00;;
10365;SDS011;5229;41.820;23.490;2022-08-03T13:47:40;2.17;;;2.00;;
10365;SDS011;5229;41.820;23.490;2022-08-03T13:50:07;2.10;;;1.85;;
10365;SDS011;5229;41.820;23.490;2022-08-03T13:52:35;2.03;;;1.83;;
10365;SDS011;5229;41.820;23.490;2022-08-03T13:55:03;1.90;;;1.80;;
10365;SDS011;5229;41.820;23.490;2022-08-03T13:57:31;2.25;;;2.00;;
10365;SDS011;5229;41.820;23.490;2022-08-03T13:59:59;2.10;;;2.00;;
10365;SDS011;5229;41.820;23.490;2022-08-03T14:02:26;2.38;;;2.17;;
10365;SDS011;5229;41.820;23.490;2022-08-03T14:04:53;2.58;;;2.38;;
10365;SDS011;5229;41.820;23.490;2022-08-03T14:07:19;3.00;;;2.80;;
10365;SDS011;5229;41.820;23.490;2022-08-03T14:09:48;2.83;;;2.63;;
10365;SDS011;5229;41.820;23.490;2022-08-03T14:12:14;4.07;;;3.25;;
10365;SDS011;5229;41.820;23.490;2022-08-03T14:14:41;3.28;;;3.05;;
10365;SDS011;5229;41.820;23.490;2022-08-03T14:17:08;3.17;;;2.95;;
10365;SDS011;5229;41.820;23.490;2022-08-03T14:19:35;3.53;;;3.22;;
10365;SDS011;5229;41.820;23.490;2022-08-03T14:22:02;3.33;;;3.13;;
10365;SDS011;5229;41.820;23.490;2022-08-03T14:24:29;3.40;;;3.20;;
10365;SDS011;5229;41.820;23.490;2022-08-03T14:26:57;4.10;;;3.80;;
10365;SDS011;5229;41.820;23.490;2022-08-03T14:29:24;3.58;;;3.28;;
10365;SDS011;5229;41.820;23.490;2022-08-03T14:31:51;3.60;;;3.40;;
10365;SDS011;5229;41.820;23.490;2022-08-03T14:34:17;4.00;;;3.70;;
10365;SDS011;5229;41.820;23.490;2022-08-03T14:36:44;3.83;;;3.53;;
10365;SDS011;5229;41.820;23.490;2022-08-03T14:39:11;3.70;;;3.40;;
10365;SDS011;5229;41.820;23.490;2022-08-03T14:41:38;4.03;;;3.72;;
10365;SDS011;5229;41.820;23.490;2022-08-03T14:44:06;4.13;;;3.83;;
10365;SDS011;5229;41.820;23.490;2022-08-03T14:46:33;4.55;;;4.15;;
10365;SDS011;5229;41.820;23.490;2022-08-03T14:49:00;4.30;;;3.90;;
10365;SDS011;5229;41.820;23.490;2022-08-03T14:51:27;4.32;;;3.70;;
10365;SDS011;5229;41.820;23.490;2022-08-03T14:53:54;4.10;;;3.80;;
10365;SDS011;5229;41.820;23.490;2022-08-03T14:56:21;4.38;;;3.97;;
10365;SDS011;5229;41.820;23.490;2022-08-03T14:58:48;4.20;;;3.90;;
10365;SDS011;5229;41.820;23.490;2022-08-03T15:01:16;4.35;;;3.95;;
10365;SDS011;5229;41.820;23.490;2022-08-03T15:03:43;4.70;;;4.30;;
10365;SDS011;5229;41.820;23.490;2022-08-03T15:06:10;4.28;;;3.95;;
10365;SDS011;5229;41.820;23.490;2022-08-03T15:08:37;4.18;;;3.88;;